sensor_id;sensor_type;location;lat;lon;timestamp;pressure;altitude;pressure_sealevel;temperature;humidity
41686;BME280;27370;42.764;23.432;2023-02-20T00:00:57;95838.22;;;6.80;100.00
41686;BME280;27370;42.764;23.432;2023-02-20T00:03:22;95843.75;;;7.12;100.00
41686;BME280;27370;42.764;23.432;2023-02-20T00:05:47;95839.25;;;7.37;100.00
41686;BME280;27370;42.764;23.432;2023-02-20T00:08:13;95842.00;;;7.48;100.00
41686;BME280;27370;42.764;23.432;2023-02-20T00:10:38;95845.09;;;7.61;100.00
41686;BME280;27370;42.764;23.432;2023-02-20T00:13:04;95862.16;;;7.97;100.00
41686;BME280;27370;42.764;23.432;2023-02-20T00:15:29;95852.84;;;7.80;100.00
41686;BME280;27370;42.764;23.432;2023-02-20T00:17:55;95842.03;;;7.66;100.00
41686;BME280;27370;42.764;23.432;2023-02-20T00:20:23;95859.34;;;7.61;100.00
41686;BME280;27370;42.764;23.432;2023-02-20T00:22:49;95854.69;;;7.51;100.00
41686;BME280;27370;42.764;23.432;2023-02-20T00:25:16;95853.19;;;7.57;100.00
41686;BME280;27370;42.764;23.432;2023-02-20T00:27:42;95857.78;;;7.57;100.00
41686;BME280;27370;42.764;23.432;2023-02-20T00:30:17;95856.97;;;7.46;100.00
41686;BME280;27370;42.764;23.432;2023-02-20T00:32:42;95862.31;;;7.35;100.00
41686;BME280;27370;42.764;23.432;2023-02-20T00:35:09;95855.00;;;7.25;100.00
41686;BME280;27370;42.764;23.432;2023-02-20T00:37:35;95849.91;;;7.09;100.00
41686;BME280;27370;42.764;23.432;2023-02-20T00:40:03;95865.19;;;6.94;100.00
41686;BME280;27370;42.764;23.432;2023-02-20T00:42:28;95859.03;;;6.94;100.00
41686;BME280;27370;42.764;23.432;2023-02-20T00:44:54;95859.13;;;7.04;100.00
41686;BME280;27370;42.764;23.432;2023-02-20T00:47:19;95846.69;;;6.82;100.00
41686;BME280;27370;42.764;23.432;2023-02-20T00:49:45;95847.34;;;6.68;100.00
41686;BME280;27370;42.764;23.432;2023-02-20T00:52:13;95858.06;;;6.61;100.00
41686;BME280;27370;42.764;23.432;2023-02-20T00:54:38;95849.50;;;6.45;100.00
41686;BME280;27370;42.764;23.432;2023-02-20T00:57:04;95855.66;;;6.45;100.00
41686;BME280;27370;42.764;23.432;2023-02-20T00:59:29;95874.25;;;6.68;100.00
41686;BME280;27370;42.764;23.432;2023-02-20T01:01:55;95868.16;;;6.79;100.00
41686;BME280;27370;42.764;23.432;2023-02-20T01:04:20;95882.88;;;6.92;100.00
41686;BME280;27370;42.764;23.432;2023-02-20T01:06:46;95892.19;;;7.05;100.00
41686;BME280;27370;42.764;23.432;2023-02-20T01:09:11;95888.41;;;7.20;100.00
41686;BME280;27370;42.764;23.432;2023-02-20T01:11:37;95903.50;;;7.35;100.00
41686;BME280;27370;42.764;23.432;2023-02-20T01:14:03;95900.91;;;7.60;100.00
41686;BME280;27370;42.764;23.432;2023-02-20T01:16:29;95923.31;;;7.72;100.00
41686;BME280;27370;42.764;23.432;2023-02-20T01:18:54;95908.28;;;7.74;100.00
41686;BME280;27370;42.764;23.432;2023-02-20T01:21:20;95901.66;;;7.54;100.00
41686;BME280;27370;42.764;23.432;2023-02-20T01:23:47;95898.59;;;7.55;100.00
41686;BME280;27370;42.764;23.432;2023-02-20T01:26:12;95890.84;;;7.43;100.00
41686;BME280;27370;42.764;23.432;2023-02-20T01:28:38;95916.97;;;7.35;100.00
41686;BME280;27370;42.764;23.432;2023-02-20T01:31:04;95910.06;;;7.38;100.00
41686;BME280;27370;42.764;23.432;2023-02-20T01:33:32;95918.16;;;7.42;100.00
41686;BME280;27370;42.764;23.432;2023-02-20T01:35:57;95920.03;;;7.30;100.00
41686;BME280;27370;42.764;23.432;2023-02-20T01:38:23;95922.84;;;7.52;100.00
41686;BME280;27370;42.764;23.432;2023-02-20T01:40:48;95920.81;;;7.34;100.00
41686;BME280;27370;42.764;23.432;2023-02-20T01:43:15;95916.19;;;7.31;100.00
41686;BME280;27370;42.764;23.432;2023-02-20T01:45:40;95924.59;;;7.23;100.00
41686;BME280;27370;42.764;23.432;2023-02-20T01:48:21;95912.22;;;7.11;100.00
41686;BME280;27370;42.764;23.432;2023-02-20T01:50:50;95920.69;;;7.13;100.00
41686;BME280;27370;42.764;23.432;2023-02-20T01:53:19;95917.22;;;7.09;100.00
41686;BME280;27370;42.764;23.432;2023-02-20T01:55:51;95912.22;;;7.07;100.00
41686;BME280;27370;42.764;23.432;2023-02-20T01:58:28;95911.28;;;6.86;100.00
41686;BME280;27370;42.764;23.432;2023-02-20T02:00:55;95922.84;;;6.86;100.00
41686;BME280;27370;42.764;23.432;2023-02-20T02:03:24;95917.44;;;6.83;100.00
41686;BME280;27370;42.764;23.432;2023-02-20T02:05:56;95915.50;;;6.80;100.00
41686;BME280;27370;42.764;23.432;2023-02-20T02:08:23;95917.81;;;6.85;100.00
41686;BME280;27370;42.764;23.432;2023-02-20T02:11:11;95915.91;;;6.85;100.00
41686;BME280;27370;42.764;23.432;2023-02-20T02:13:38;95899.38;;;6.87;100.00
41686;BME280;27370;42.764;23.432;2023-02-20T02:16:16;95915.19;;;6.95;100.00
41686;BME280;27370;42.764;23.432;2023-02-20T02:27:08;95898.50;;;7.34;100.00
41686;BME280;27370;42.764;23.432;2023-02-20T02:37:18;95935.97;;;6.95;100.00
41686;BME280;27370;42.764;23.432;2023-02-20T02:45:16;95940.25;;;6.55;100.00
41686;BME280;27370;42.764;23.432;2023-02-20T02:47:48;95941.16;;;6.26;100.00
41686;BME280;27370;42.764;23.432;2023-02-20T02:50:28;95944.91;;;6.18;100.00
41686;BME280;27370;42.764;23.432;2023-02-20T02:52:56;95948.66;;;6.09;100.00
41686;BME280;27370;42.764;23.432;2023-02-20T02:55:28;95944.44;;;6.08;100.00
41686;BME280;27370;42.764;23.432;2023-02-20T02:57:54;95952.09;;;6.06;100.00
41686;BME280;27370;42.764;23.432;2023-02-20T03:00:37;95955.19;;;6.08;100.00
41686;BME280;27370;42.764;23.432;2023-02-20T03:03:06;95958.72;;;6.16;100.00
41686;BME280;27370;42.764;23.432;2023-02-20T03:05:39;95960.91;;;6.07;100.00
41686;BME280;27370;42.764;23.432;2023-02-20T03:08:20;95963.59;;;6.03;100.00
41686;BME280;27370;42.764;23.432;2023-02-20T03:10:57;95974.25;;;5.96;100.00
41686;BME280;27370;42.764;23.432;2023-02-20T03:13:25;95973.09;;;5.94;100.00
41686;BME280;27370;42.764;23.432;2023-02-20T03:16:15;95964.13;;;5.86;100.00
41686;BME280;27370;42.764;23.432;2023-02-20T03:18:44;95974.16;;;5.89;100.00
41686;BME280;27370;42.764;23.432;2023-02-20T03:21:15;95957.19;;;5.85;100.00
41686;BME280;27370;42.764;23.432;2023-02-20T03:23:44;95977.16;;;5.84;100.00
41686;BME280;27370;42.764;23.432;2023-02-20T03:26:17;95986.22;;;5.72;100.00
41686;BME280;27370;42.764;23.432;2023-02-20T03:28:55;95997.75;;;5.73;100.00
41686;BME280;27370;42.764;23.432;2023-02-20T03:34:04;96004.84;;;5.58;100.00
41686;BME280;27370;42.764;23.432;2023-02-20T03:36:56;96018.19;;;5.51;100.00
41686;BME280;27370;42.764;23.432;2023-02-20T03:39:48;96009.88;;;5.63;100.00
41686;BME280;27370;42.764;23.432;2023-02-20T03:42:37;96007.06;;;5.52;100.00
41686;BME280;27370;42.764;23.432;2023-02-20T03:45:31;95997.50;;;5.55;100.00
41686;BME280;27370;42.764;23.432;2023-02-20T03:48:00;96009.59;;;5.42;100.00
41686;BME280;27370;42.764;23.432;2023-02-20T03:50:29;96004.13;;;5.35;100.00
41686;BME280;27370;42.764;23.432;2023-02-20T03:53:13;96008.47;;;5.16;100.00
41686;BME280;27370;42.764;23.432;2023-02-20T03:55:39;96023.59;;;5.02;100.00
41686;BME280;27370;42.764;23.432;2023-02-20T03:58:10;96018.72;;;4.84;100.00
41686;BME280;27370;42.764;23.432;2023-02-20T04:00:41;96012.03;;;4.75;100.00
41686;BME280;27370;42.764;23.432;2023-02-20T04:03:18;96014.66;;;4.71;100.00
41686;BME280;27370;42.764;23.432;2023-02-20T04:05:52;96001.22;;;4.48;100.00
41686;BME280;27370;42.764;23.432;2023-02-20T04:08:42;96009.16;;;4.41;100.00
41686;BME280;27370;42.764;23.432;2023-02-20T04:11:20;96018.09;;;4.49;100.00
41686;BME280;27370;42.764;23.432;2023-02-20T04:13:50;96014.84;;;4.59;100.00
41686;BME280;27370;42.764;23.432;2023-02-20T04:16:19;96022.81;;;4.55;100.00
41686;BME280;27370;42.764;23.432;2023-02-20T04:18:45;96027.53;;;4.62;100.00
41686;BME280;27370;42.764;23.432;2023-02-20T04:24:06;96021.63;;;4.53;100.00
41686;BME280;27370;42.764;23.432;2023-02-20T04:26:34;96012.69;;;4.45;100.00
41686;BME280;27370;42.764;23.432;2023-02-20T04:29:01;96018.47;;;4.47;100.00
41686;BME280;27370;42.764;23.432;2023-02-20T04:31:26;96006.56;;;4.68;100.00
41686;BME280;27370;42.764;23.432;2023-02-20T04:33:52;96021.09;;;4.89;100.00
41686;BME280;27370;42.764;23.432;2023-02-20T04:36:20;96024.72;;;5.01;100.00
41686;BME280;27370;42.764;23.432;2023-02-20T04:38:48;96020.25;;;5.08;100.00
41686;BME280;27370;42.764;23.432;2023-02-20T04:41:17;96026.44;;;5.12;100.00
41686;BME280;27370;42.764;23.432;2023-02-20T04:43:43;96039.00;;;5.31;100.00
41686;BME280;27370;42.764;23.432;2023-02-20T04:46:09;96042.50;;;5.35;100.00
41686;BME280;27370;42.764;23.432;2023-02-20T04:48:35;96041.59;;;5.50;100.00
41686;BME280;27370;42.764;23.432;2023-02-20T04:51:01;96053.66;;;5.64;100.00
41686;BME280;27370;42.764;23.432;2023-02-20T04:53:27;96056.75;;;5.66;100.00
41686;BME280;27370;42.764;23.432;2023-02-20T04:55:53;96058.72;;;5.69;100.00
41686;BME280;27370;42.764;23.432;2023-02-20T04:58:21;96059.03;;;5.64;100.00
41686;BME280;27370;42.764;23.432;2023-02-20T05:00:53;96059.44;;;5.66;100.00
41686;BME280;27370;42.764;23.432;2023-02-20T05:03:18;96049.28;;;5.52;100.00
41686;BME280;27370;42.764;23.432;2023-02-20T05:05:44;96065.66;;;5.43;100.00
41686;BME280;27370;42.764;23.432;2023-02-20T05:08:09;96073.72;;;5.43;100.00
41686;BME280;27370;42.764;23.432;2023-02-20T05:10:35;96075.97;;;5.41;100.00
41686;BME280;27370;42.764;23.432;2023-02-20T05:13:01;96080.16;;;5.39;100.00
41686;BME280;27370;42.764;23.432;2023-02-20T05:15:28;96078.53;;;5.34;100.00
41686;BME280;27370;42.764;23.432;2023-02-20T05:17:54;96072.34;;;5.30;100.00
41686;BME280;27370;42.764;23.432;2023-02-20T05:20:20;96081.53;;;5.29;100.00
41686;BME280;27370;42.764;23.432;2023-02-20T05:23:05;96078.13;;;5.32;100.00
41686;BME280;27370;42.764;23.432;2023-02-20T05:25:31;96084.66;;;5.31;100.00
41686;BME280;27370;42.764;23.432;2023-02-20T05:27:57;96078.09;;;5.29;100.00
41686;BME280;27370;42.764;23.432;2023-02-20T05:30:22;96089.66;;;5.33;100.00
41686;BME280;27370;42.764;23.432;2023-02-20T05:32:47;96095.47;;;5.38;100.00
41686;BME280;27370;42.764;23.432;2023-02-20T05:35:13;96099.63;;;5.32;100.00
41686;BME280;27370;42.764;23.432;2023-02-20T05:37:38;96102.34;;;5.36;100.00
41686;BME280;27370;42.764;23.432;2023-02-20T05:40:04;96104.25;;;5.35;100.00
41686;BME280;27370;42.764;23.432;2023-02-20T05:42:30;96121.59;;;5.64;100.00
41686;BME280;27370;42.764;23.432;2023-02-20T05:44:55;96108.25;;;5.94;100.00
41686;BME280;27370;42.764;23.432;2023-02-20T05:47:21;96110.47;;;6.19;100.00
41686;BME280;27370;42.764;23.432;2023-02-20T05:49:46;96122.53;;;6.32;100.00
41686;BME280;27370;42.764;23.432;2023-02-20T05:52:12;96123.69;;;6.31;100.00
41686;BME280;27370;42.764;23.432;2023-02-20T05:54:38;96127.03;;;6.21;100.00
41686;BME280;27370;42.764;23.432;2023-02-20T05:57:04;96108.81;;;6.10;100.00
41686;BME280;27370;42.764;23.432;2023-02-20T05:59:30;96130.00;;;6.12;100.00
41686;BME280;27370;42.764;23.432;2023-02-20T06:01:56;96125.47;;;6.20;100.00
41686;BME280;27370;42.764;23.432;2023-02-20T06:04:22;96136.63;;;6.22;100.00
41686;BME280;27370;42.764;23.432;2023-02-20T06:06:48;96145.44;;;6.19;100.00
41686;BME280;27370;42.764;23.432;2023-02-20T06:09:13;96139.88;;;6.34;100.00
41686;BME280;27370;42.764;23.432;2023-02-20T06:11:41;96147.66;;;6.43;100.00
41686;BME280;27370;42.764;23.432;2023-02-20T06:14:12;96161.47;;;6.41;100.00
41686;BME280;27370;42.764;23.432;2023-02-20T06:16:37;96164.78;;;6.31;100.00
41686;BME280;27370;42.764;23.432;2023-02-20T06:19:02;96167.63;;;6.42;100.00
41686;BME280;27370;42.764;23.432;2023-02-20T06:21:29;96163.72;;;6.36;100.00
41686;BME280;27370;42.764;23.432;2023-02-20T06:23:55;96167.69;;;6.45;100.00
41686;BME280;27370;42.764;23.432;2023-02-20T06:26:21;96173.34;;;6.70;100.00
41686;BME280;27370;42.764;23.432;2023-02-20T06:28:47;96175.41;;;6.81;100.00
41686;BME280;27370;42.764;23.432;2023-02-20T06:31:24;96174.59;;;7.14;100.00
41686;BME280;27370;42.764;23.432;2023-02-20T06:33:51;96175.59;;;7.35;100.00
41686;BME280;27370;42.764;23.432;2023-02-20T06:36:24;96159.28;;;7.21;100.00
41686;BME280;27370;42.764;23.432;2023-02-20T06:38:51;96166.59;;;7.21;100.00
41686;BME280;27370;42.764;23.432;2023-02-20T06:41:16;96179.41;;;7.31;100.00
41686;BME280;27370;42.764;23.432;2023-02-20T06:43:41;96171.78;;;7.40;100.00
41686;BME280;27370;42.764;23.432;2023-02-20T06:46:07;96174.91;;;7.46;100.00
41686;BME280;27370;42.764;23.432;2023-02-20T06:48:33;96183.84;;;7.53;100.00
41686;BME280;27370;42.764;23.432;2023-02-20T06:50:58;96193.53;;;7.61;100.00
41686;BME280;27370;42.764;23.432;2023-02-20T06:53:24;96175.78;;;7.57;100.00
41686;BME280;27370;42.764;23.432;2023-02-20T06:55:49;96181.44;;;7.45;100.00
41686;BME280;27370;42.764;23.432;2023-02-20T06:58:14;96191.34;;;7.33;100.00
41686;BME280;27370;42.764;23.432;2023-02-20T07:00:40;96184.19;;;7.11;100.00
41686;BME280;27370;42.764;23.432;2023-02-20T07:03:05;96196.03;;;7.03;100.00
41686;BME280;27370;42.764;23.432;2023-02-20T07:05:31;96193.56;;;7.24;100.00
41686;BME280;27370;42.764;23.432;2023-02-20T07:07:56;96196.16;;;7.14;100.00
41686;BME280;27370;42.764;23.432;2023-02-20T07:10:22;96186.91;;;7.15;100.00
41686;BME280;27370;42.764;23.432;2023-02-20T07:12:47;96205.38;;;7.50;100.00
41686;BME280;27370;42.764;23.432;2023-02-20T07:15:13;96200.03;;;7.57;100.00
41686;BME280;27370;42.764;23.432;2023-02-20T07:17:39;96201.44;;;7.91;100.00
41686;BME280;27370;42.764;23.432;2023-02-20T07:20:05;96213.09;;;8.03;100.00
41686;BME280;27370;42.764;23.432;2023-02-20T07:22:31;96215.66;;;8.36;100.00
41686;BME280;27370;42.764;23.432;2023-02-20T07:24:56;96206.56;;;8.62;100.00
41686;BME280;27370;42.764;23.432;2023-02-20T07:27:22;96211.13;;;8.54;100.00
41686;BME280;27370;42.764;23.432;2023-02-20T07:29:49;96214.22;;;8.53;100.00
41686;BME280;27370;42.764;23.432;2023-02-20T07:32:15;96199.03;;;8.30;100.00
41686;BME280;27370;42.764;23.432;2023-02-20T07:34:45;96208.78;;;8.42;100.00
41686;BME280;27370;42.764;23.432;2023-02-20T07:37:12;96196.06;;;8.43;100.00
41686;BME280;27370;42.764;23.432;2023-02-20T07:39:38;96201.09;;;8.48;100.00
41686;BME280;27370;42.764;23.432;2023-02-20T07:42:04;96197.66;;;8.54;100.00
41686;BME280;27370;42.764;23.432;2023-02-20T07:44:48;96199.66;;;8.68;100.00
41686;BME280;27370;42.764;23.432;2023-02-20T07:47:14;96213.34;;;8.35;100.00
41686;BME280;27370;42.764;23.432;2023-02-20T07:49:39;96213.28;;;8.31;100.00
41686;BME280;27370;42.764;23.432;2023-02-20T07:52:05;96213.63;;;8.19;100.00
41686;BME280;27370;42.764;23.432;2023-02-20T07:54:31;96209.28;;;8.07;100.00
41686;BME280;27370;42.764;23.432;2023-02-20T07:56:56;96219.13;;;7.85;100.00
41686;BME280;27370;42.764;23.432;2023-02-20T07:59:22;96224.28;;;8.05;100.00
41686;BME280;27370;42.764;23.432;2023-02-20T08:01:48;96229.41;;;8.17;100.00
41686;BME280;27370;42.764;23.432;2023-02-20T08:04:13;96227.91;;;8.23;100.00
41686;BME280;27370;42.764;23.432;2023-02-20T08:06:39;96216.38;;;8.29;100.00
41686;BME280;27370;42.764;23.432;2023-02-20T08:09:04;96224.22;;;8.45;100.00
41686;BME280;27370;42.764;23.432;2023-02-20T08:11:34;96224.34;;;8.70;100.00
41686;BME280;27370;42.764;23.432;2023-02-20T08:14:01;96228.22;;;8.76;100.00
41686;BME280;27370;42.764;23.432;2023-02-20T08:16:26;96223.28;;;8.89;100.00
41686;BME280;27370;42.764;23.432;2023-02-20T08:18:52;96226.75;;;8.93;100.00
41686;BME280;27370;42.764;23.432;2023-02-20T08:21:18;96214.44;;;8.99;100.00
41686;BME280;27370;42.764;23.432;2023-02-20T08:23:43;96233.03;;;9.22;100.00
41686;BME280;27370;42.764;23.432;2023-02-20T08:26:09;96220.28;;;9.12;97.71
41686;BME280;27370;42.764;23.432;2023-02-20T08:28:35;96211.41;;;9.18;92.32
41686;BME280;27370;42.764;23.432;2023-02-20T08:31:02;96216.44;;;9.20;87.90
41686;BME280;27370;42.764;23.432;2023-02-20T08:33:27;96227.69;;;9.36;85.23
41686;BME280;27370;42.764;23.432;2023-02-20T08:35:53;96233.06;;;9.29;87.10
41686;BME280;27370;42.764;23.432;2023-02-20T08:40:54;96218.06;;;9.71;83.93
41686;BME280;27370;42.764;23.432;2023-02-20T08:43:20;96215.00;;;9.83;83.09
41686;BME280;27370;42.764;23.432;2023-02-20T08:45:45;96208.81;;;9.97;81.72
41686;BME280;27370;42.764;23.432;2023-02-20T08:48:13;96204.19;;;9.79;79.72
41686;BME280;27370;42.764;23.432;2023-02-20T08:50:39;96205.69;;;9.70;80.35
41686;BME280;27370;42.764;23.432;2023-02-20T08:53:05;96201.09;;;9.99;80.55
41686;BME280;27370;42.764;23.432;2023-02-20T08:55:30;96209.19;;;10.13;76.56
41686;BME280;27370;42.764;23.432;2023-02-20T08:57:56;96204.56;;;10.31;74.66
41686;BME280;27370;42.764;23.432;2023-02-20T09:00:22;96191.75;;;10.50;76.35
41686;BME280;27370;42.764;23.432;2023-02-20T09:02:47;96196.00;;;10.51;70.88
41686;BME280;27370;42.764;23.432;2023-02-20T09:05:14;96179.31;;;10.63;66.83
41686;BME280;27370;42.764;23.432;2023-02-20T09:07:39;96183.22;;;10.58;69.55
41686;BME280;27370;42.764;23.432;2023-02-20T09:10:05;96170.84;;;10.57;69.36
41686;BME280;27370;42.764;23.432;2023-02-20T09:12:31;96174.22;;;10.90;67.80
41686;BME280;27370;42.764;23.432;2023-02-20T09:14:57;96166.38;;;11.10;66.08
41686;BME280;27370;42.764;23.432;2023-02-20T09:17:27;96169.91;;;10.99;64.76
41686;BME280;27370;42.764;23.432;2023-02-20T09:19:53;96176.72;;;11.25;63.07
41686;BME280;27370;42.764;23.432;2023-02-20T09:22:26;96170.91;;;11.27;62.57
41686;BME280;27370;42.764;23.432;2023-02-20T09:24:52;96157.72;;;11.29;60.75
41686;BME280;27370;42.764;23.432;2023-02-20T09:27:19;96160.41;;;11.36;61.85
41686;BME280;27370;42.764;23.432;2023-02-20T09:29:45;96156.81;;;11.50;60.38
41686;BME280;27370;42.764;23.432;2023-02-20T09:32:10;96169.81;;;11.80;61.86
41686;BME280;27370;42.764;23.432;2023-02-20T09:34:36;96170.09;;;11.89;59.00
41686;BME280;27370;42.764;23.432;2023-02-20T09:37:02;96145.38;;;11.76;57.97
41686;BME280;27370;42.764;23.432;2023-02-20T09:39:29;96160.69;;;12.04;59.29
41686;BME280;27370;42.764;23.432;2023-02-20T09:47:02;96148.56;;;12.12;56.63
41686;BME280;27370;42.764;23.432;2023-02-20T09:49:31;96150.84;;;12.17;56.61
41686;BME280;27370;42.764;23.432;2023-02-20T09:52:09;96144.00;;;12.06;57.24
41686;BME280;27370;42.764;23.432;2023-02-20T09:54:42;96147.44;;;12.10;55.39
41686;BME280;27370;42.764;23.432;2023-02-20T09:57:13;96148.09;;;12.24;58.31
41686;BME280;27370;42.764;23.432;2023-02-20T10:00:00;96142.84;;;12.41;56.73
41686;BME280;27370;42.764;23.432;2023-02-20T10:02:38;96146.25;;;12.11;58.93
41686;BME280;27370;42.764;23.432;2023-02-20T10:05:13;96126.97;;;12.02;58.02
41686;BME280;27370;42.764;23.432;2023-02-20T10:07:44;96122.16;;;12.16;59.46
41686;BME280;27370;42.764;23.432;2023-02-20T10:10:25;96130.09;;;12.00;60.55
41686;BME280;27370;42.764;23.432;2023-02-20T10:13:17;96133.88;;;12.10;62.52
41686;BME280;27370;42.764;23.432;2023-02-20T10:18:25;96127.88;;;11.88;59.92
41686;BME280;27370;42.764;23.432;2023-02-20T10:21:00;96130.63;;;12.22;58.78
41686;BME280;27370;42.764;23.432;2023-02-20T10:26:09;96110.63;;;12.43;57.63
41686;BME280;27370;42.764;23.432;2023-02-20T10:28:36;96127.50;;;12.61;55.95
41686;BME280;27370;42.764;23.432;2023-02-20T10:31:24;96100.91;;;12.76;54.01
41686;BME280;27370;42.764;23.432;2023-02-20T10:34:17;96105.72;;;12.65;53.99
41686;BME280;27370;42.764;23.432;2023-02-20T10:36:50;96105.38;;;12.59;54.98
41686;BME280;27370;42.764;23.432;2023-02-20T10:39:19;96107.78;;;12.84;54.81
41686;BME280;27370;42.764;23.432;2023-02-20T10:42:05;96100.88;;;12.79;53.54
41686;BME280;27370;42.764;23.432;2023-02-20T10:44:59;96116.78;;;13.08;52.83
41686;BME280;27370;42.764;23.432;2023-02-20T10:47:56;96099.38;;;12.75;53.03
41686;BME280;27370;42.764;23.432;2023-02-20T10:53:17;96108.56;;;12.54;53.83
41686;BME280;27370;42.764;23.432;2023-02-20T10:58:47;96109.34;;;12.54;54.92
41686;BME280;27370;42.764;23.432;2023-02-20T11:01:22;96104.16;;;12.64;55.05
41686;BME280;27370;42.764;23.432;2023-02-20T11:07:00;96096.63;;;12.78;52.17
41686;BME280;27370;42.764;23.432;2023-02-20T11:09:27;96092.94;;;12.62;51.93
41686;BME280;27370;42.764;23.432;2023-02-20T11:11:53;96076.59;;;12.65;54.76
41686;BME280;27370;42.764;23.432;2023-02-20T11:14:40;96083.53;;;12.70;54.06
41686;BME280;27370;42.764;23.432;2023-02-20T11:17:21;96088.22;;;12.96;52.63
41686;BME280;27370;42.764;23.432;2023-02-20T11:19:57;96082.03;;;12.96;52.51
41686;BME280;27370;42.764;23.432;2023-02-20T11:22:43;96080.09;;;13.23;53.64
41686;BME280;27370;42.764;23.432;2023-02-20T11:25:19;96092.88;;;13.26;52.38
41686;BME280;27370;42.764;23.432;2023-02-20T11:27:50;96088.00;;;13.41;49.79
41686;BME280;27370;42.764;23.432;2023-02-20T11:33:01;96078.75;;;13.35;52.50
41686;BME280;27370;42.764;23.432;2023-02-20T11:35:33;96088.56;;;13.52;51.50
41686;BME280;27370;42.764;23.432;2023-02-20T11:45:45;96077.38;;;13.23;51.40
41686;BME280;27370;42.764;23.432;2023-02-20T11:48:14;96075.38;;;13.51;52.33
41686;BME280;27370;42.764;23.432;2023-02-20T11:50:44;96059.28;;;13.09;52.27
41686;BME280;27370;42.764;23.432;2023-02-20T11:53:22;96070.31;;;12.99;52.29
41686;BME280;27370;42.764;23.432;2023-02-20T11:55:49;96068.31;;;13.03;51.35
41686;BME280;27370;42.764;23.432;2023-02-20T11:58:30;96064.91;;;13.26;51.75
41686;BME280;27370;42.764;23.432;2023-02-20T12:00:56;96071.69;;;13.10;49.79
41686;BME280;27370;42.764;23.432;2023-02-20T12:03:27;96054.94;;;13.15;49.66
41686;BME280;27370;42.764;23.432;2023-02-20T12:05:54;96056.97;;;13.08;51.64
41686;BME280;27370;42.764;23.432;2023-02-20T12:08:41;96063.47;;;12.91;51.28
41686;BME280;27370;42.764;23.432;2023-02-20T12:11:15;96050.25;;;13.20;51.93
41686;BME280;27370;42.764;23.432;2023-02-20T12:13:48;96060.38;;;13.15;49.95
41686;BME280;27370;42.764;23.432;2023-02-20T12:30:10;96081.25;;;13.49;49.63
41686;BME280;27370;42.764;23.432;2023-02-20T12:35:33;96096.69;;;13.79;49.04
41686;BME280;27370;42.764;23.432;2023-02-20T12:44:13;96058.53;;;13.83;47.00
41686;BME280;27370;42.764;23.432;2023-02-20T13:00:32;96065.47;;;11.40;55.35
41686;BME280;27370;42.764;23.432;2023-02-20T13:05:31;96078.31;;;11.32;56.10
41686;BME280;27370;42.764;23.432;2023-02-20T13:08:06;96082.22;;;11.27;55.58
41686;BME280;27370;42.764;23.432;2023-02-20T13:10:48;96096.16;;;11.26;55.55
41686;BME280;27370;42.764;23.432;2023-02-20T13:13:16;96080.16;;;11.42;56.12
41686;BME280;27370;42.764;23.432;2023-02-20T13:16:36;96079.47;;;11.76;56.41
41686;BME280;27370;42.764;23.432;2023-02-20T13:18:48;96100.41;;;12.20;54.31
41686;BME280;27370;42.764;23.432;2023-02-20T13:21:22;96081.28;;;11.93;53.24
41686;BME280;27370;42.764;23.432;2023-02-20T13:23:49;96088.31;;;12.28;52.89
41686;BME280;27370;42.764;23.432;2023-02-20T13:29:13;96092.78;;;12.08;53.09
41686;BME280;27370;42.764;23.432;2023-02-20T13:31:57;96083.09;;;12.41;52.93
41686;BME280;27370;42.764;23.432;2023-02-20T13:36:56;96102.03;;;12.78;51.26
41686;BME280;27370;42.764;23.432;2023-02-20T13:39:34;96100.00;;;12.55;50.98
41686;BME280;27370;42.764;23.432;2023-02-20T13:42:01;96104.28;;;12.22;51.81
41686;BME280;27370;42.764;23.432;2023-02-20T13:44:43;96118.56;;;12.26;55.90
41686;BME280;27370;42.764;23.432;2023-02-20T13:52:30;96113.16;;;12.91;53.83
41686;BME280;27370;42.764;23.432;2023-02-20T13:55:09;96100.78;;;12.86;53.33
41686;BME280;27370;42.764;23.432;2023-02-20T14:00:28;96108.28;;;12.45;56.04
41686;BME280;27370;42.764;23.432;2023-02-20T14:02:58;96103.25;;;12.43;52.89
41686;BME280;27370;42.764;23.432;2023-02-20T14:05:27;96094.19;;;12.23;53.70
41686;BME280;27370;42.764;23.432;2023-02-20T14:07:53;96104.47;;;12.39;53.58
41686;BME280;27370;42.764;23.432;2023-02-20T14:15:44;96108.91;;;12.25;56.05
41686;BME280;27370;42.764;23.432;2023-02-20T14:18:18;96117.06;;;12.22;56.67
41686;BME280;27370;42.764;23.432;2023-02-20T14:20:45;96116.19;;;11.91;56.81
41686;BME280;27370;42.764;23.432;2023-02-20T14:23:25;96110.00;;;11.90;57.58
41686;BME280;27370;42.764;23.432;2023-02-20T14:26:03;96122.72;;;12.01;57.03
41686;BME280;27370;42.764;23.432;2023-02-20T14:28:33;96117.66;;;11.99;56.47
41686;BME280;27370;42.764;23.432;2023-02-20T14:33:29;96117.56;;;12.10;54.98
41686;BME280;27370;42.764;23.432;2023-02-20T14:36:19;96124.00;;;12.26;55.06
41686;BME280;27370;42.764;23.432;2023-02-20T14:39:01;96121.63;;;11.91;55.91
41686;BME280;27370;42.764;23.432;2023-02-20T14:41:29;96122.47;;;11.32;58.25
41686;BME280;27370;42.764;23.432;2023-02-20T14:43:58;96130.31;;;11.16;59.78
41686;BME280;27370;42.764;23.432;2023-02-20T14:46:34;96128.34;;;11.20;61.04
41686;BME280;27370;42.764;23.432;2023-02-20T14:49:04;96136.16;;;11.08;61.25
41686;BME280;27370;42.764;23.432;2023-02-20T14:51:31;96140.88;;;10.96;60.73
41686;BME280;27370;42.764;23.432;2023-02-20T14:54:02;96132.78;;;10.89;62.31
41686;BME280;27370;42.764;23.432;2023-02-20T14:56:35;96135.38;;;11.07;62.42
41686;BME280;27370;42.764;23.432;2023-02-20T15:01:41;96141.34;;;10.77;65.25
41686;BME280;27370;42.764;23.432;2023-02-20T15:04:10;96149.47;;;10.77;66.18
41686;BME280;27370;42.764;23.432;2023-02-20T15:06:38;96139.09;;;10.58;66.37